sensor_id;sensor_type;location;lat;lon;timestamp;pressure;altitude;pressure_sealevel;temperature;humidity
42285;BME280;27942;47.510;18.966;2022-12-10T00:01:09;-15364.41;;;5.50;100.00
42285;BME280;27942;47.510;18.966;2022-12-10T00:03:35;-15364.13;;;5.49;100.00
42285;BME280;27942;47.510;18.966;2022-12-10T00:06:02;-15365.34;;;5.53;100.00
42285;BME280;27942;47.510;18.966;2022-12-10T00:08:28;-15362.56;;;5.44;100.00
42285;BME280;27942;47.510;18.966;2022-12-10T00:10:53;-15363.97;;;5.49;100.00
42285;BME280;27942;47.510;18.966;2022-12-10T00:13:19;-15364.41;;;5.50;100.00
42285;BME280;27942;47.510;18.966;2022-12-10T00:15:44;-15363.97;;;5.49;100.00
42285;BME280;27942;47.510;18.966;2022-12-10T00:18:09;-15367.53;;;5.60;100.00
42285;BME280;27942;47.510;18.966;2022-12-10T00:20:36;-15370.78;;;5.71;100.00
42285;BME280;27942;47.510;18.966;2022-12-10T00:23:02;-15369.84;;;5.68;100.00
42285;BME280;27942;47.510;18.966;2022-12-10T00:25:28;-15373.25;;;5.79;100.00
42285;BME280;27942;47.510;18.966;2022-12-10T00:27:53;-15373.25;;;5.79;100.00
42285;BME280;27942;47.510;18.966;2022-12-10T00:30:18;-15371.09;;;5.72;100.00
42285;BME280;27942;47.510;18.966;2022-12-10T00:32:44;-15372.03;;;5.75;100.00
42285;BME280;27942;47.510;18.966;2022-12-10T00:35:09;-15370.94;;;5.72;100.00
42285;BME280;27942;47.510;18.966;2022-12-10T00:37:34;-15371.88;;;5.75;100.00
42285;BME280;27942;47.510;18.966;2022-12-10T00:40:00;-15369.69;;;5.68;100.00
42285;BME280;27942;47.510;18.966;2022-12-10T00:42:25;-15371.25;;;5.73;100.00
42285;BME280;27942;47.510;18.966;2022-12-10T00:44:50;-15368.91;;;5.65;100.00
42285;BME280;27942;47.510;18.966;2022-12-10T00:47:16;-15367.53;;;5.60;100.00
42285;BME280;27942;47.510;18.966;2022-12-10T00:49:41;-15364.72;;;5.51;100.00
42285;BME280;27942;47.510;18.966;2022-12-10T00:52:06;-15363.50;;;5.47;100.00
42285;BME280;27942;47.510;18.966;2022-12-10T00:54:32;-15364.13;;;5.49;100.00
42285;BME280;27942;47.510;18.966;2022-12-10T00:56:57;-15362.88;;;5.45;100.00
42285;BME280;27942;47.510;18.966;2022-12-10T00:59:22;-15362.72;;;5.45;100.00
42285;BME280;27942;47.510;18.966;2022-12-10T01:01:48;-15359.31;;;5.33;100.00
42285;BME280;27942;47.510;18.966;2022-12-10T01:04:16;-15359.31;;;5.33;100.00
42285;BME280;27942;47.510;18.966;2022-12-10T01:09:11;-15359.47;;;5.34;100.00
42285;BME280;27942;47.510;18.966;2022-12-10T01:11:39;-15356.97;;;5.26;100.00
42285;BME280;27942;47.510;18.966;2022-12-10T01:14:07;-15358.53;;;5.31;100.00
42285;BME280;27942;47.510;18.966;2022-12-10T01:16:33;-15357.91;;;5.29;100.00
42285;BME280;27942;47.510;18.966;2022-12-10T01:18:59;-15357.44;;;5.27;100.00
42285;BME280;27942;47.510;18.966;2022-12-10T01:21:26;-15355.91;;;5.22;100.00
42285;BME280;27942;47.510;18.966;2022-12-10T01:23:52;-15357.59;;;5.28;100.00
42285;BME280;27942;47.510;18.966;2022-12-10T01:26:22;-15356.34;;;5.24;100.00
42285;BME280;27942;47.510;18.966;2022-12-10T01:28:49;-15355.91;;;5.22;100.00
42285;BME280;27942;47.510;18.966;2022-12-10T01:33:40;-15356.19;;;5.23;100.00
42285;BME280;27942;47.510;18.966;2022-12-10T01:36:12;-15355.28;;;5.20;100.00
42285;BME280;27942;47.510;18.966;2022-12-10T01:38:38;-15355.59;;;5.21;100.00
42285;BME280;27942;47.510;18.966;2022-12-10T01:41:04;-15356.66;;;5.25;100.00
42285;BME280;27942;47.510;18.966;2022-12-10T01:43:58;-15356.66;;;5.25;100.00
42285;BME280;27942;47.510;18.966;2022-12-10T01:46:27;-15355.72;;;5.22;100.00
42285;BME280;27942;47.510;18.966;2022-12-10T01:48:53;-15355.44;;;5.21;100.00
42285;BME280;27942;47.510;18.966;2022-12-10T01:51:19;-15353.56;;;5.15;100.00
42285;BME280;27942;47.510;18.966;2022-12-10T01:53:45;-15354.34;;;5.17;100.00
42285;BME280;27942;47.510;18.966;2022-12-10T01:56:12;-15353.56;;;5.15;100.00
42285;BME280;27942;47.510;18.966;2022-12-10T01:58:38;-15352.94;;;5.12;100.00
42285;BME280;27942;47.510;18.966;2022-12-10T02:01:14;-15349.53;;;5.01;100.00
42285;BME280;27942;47.510;18.966;2022-12-10T02:04:12;-15349.06;;;5.00;100.00
42285;BME280;27942;47.510;18.966;2022-12-10T02:07:02;-15350.00;;;5.03;100.00
42285;BME280;27942;47.510;18.966;2022-12-10T02:09:42;-15347.81;;;4.96;100.00
42285;BME280;27942;47.510;18.966;2022-12-10T02:12:23;-15347.66;;;4.95;100.00
42285;BME280;27942;47.510;18.966;2022-12-10T02:14:55;-15350.31;;;5.04;100.00
42285;BME280;27942;47.510;18.966;2022-12-10T02:22:29;-15347.38;;;4.94;100.00
42285;BME280;27942;47.510;18.966;2022-12-10T02:24:55;-15347.06;;;4.93;100.00
42285;BME280;27942;47.510;18.966;2022-12-10T02:27:28;-15346.28;;;4.91;100.00
42285;BME280;27942;47.510;18.966;2022-12-10T02:29:57;-15345.66;;;4.88;100.00
42285;BME280;27942;47.510;18.966;2022-12-10T02:32:25;-15345.50;;;4.88;100.00
42285;BME280;27942;47.510;18.966;2022-12-10T02:34:55;-15342.56;;;4.78;100.00
42285;BME280;27942;47.510;18.966;2022-12-10T02:37:33;-15343.47;;;4.81;100.00
42285;BME280;27942;47.510;18.966;2022-12-10T02:40:04;-15340.38;;;4.71;100.00
42285;BME280;27942;47.510;18.966;2022-12-10T02:42:35;-15339.59;;;4.69;100.00
42285;BME280;27942;47.510;18.966;2022-12-10T02:45:03;-15338.38;;;4.65;100.00
42285;BME280;27942;47.510;18.966;2022-12-10T02:47:29;-15334.66;;;4.52;100.00
42285;BME280;27942;47.510;18.966;2022-12-10T02:49:56;-15336.19;;;4.57;100.00
42285;BME280;27942;47.510;18.966;2022-12-10T02:52:23;-15336.50;;;4.58;100.00
42285;BME280;27942;47.510;18.966;2022-12-10T02:54:50;-15335.09;;;4.54;100.00
42285;BME280;27942;47.510;18.966;2022-12-10T03:05:46;-15334.19;;;4.51;100.00
42285;BME280;27942;47.510;18.966;2022-12-10T03:08:24;-15332.00;;;4.44;100.00
42285;BME280;27942;47.510;18.966;2022-12-10T03:11:00;-15333.41;;;4.48;100.00
42285;BME280;27942;47.510;18.966;2022-12-10T03:14:08;-15332.31;;;4.45;100.00
42285;BME280;27942;47.510;18.966;2022-12-10T03:16:41;-15329.69;;;4.36;100.00
42285;BME280;27942;47.510;18.966;2022-12-10T03:19:11;-15326.72;;;4.26;100.00
42285;BME280;27942;47.510;18.966;2022-12-10T03:21:39;-15326.72;;;4.26;100.00
42285;BME280;27942;47.510;18.966;2022-12-10T03:24:06;-15327.03;;;4.27;100.00
42285;BME280;27942;47.510;18.966;2022-12-10T03:26:32;-15325.34;;;4.22;100.00
42285;BME280;27942;47.510;18.966;2022-12-10T03:29:05;-15320.38;;;4.05;100.00
42285;BME280;27942;47.510;18.966;2022-12-10T03:31:33;-15317.91;;;3.97;100.00
42285;BME280;27942;47.510;18.966;2022-12-10T03:33:59;-15314.47;;;3.86;100.00
42285;BME280;27942;47.510;18.966;2022-12-10T03:36:27;-15313.56;;;3.83;100.00
42285;BME280;27942;47.510;18.966;2022-12-10T03:38:53;-15308.13;;;3.65;100.00
42285;BME280;27942;47.510;18.966;2022-12-10T03:41:18;-15308.13;;;3.65;100.00
42285;BME280;27942;47.510;18.966;2022-12-10T03:43:52;-15310.59;;;3.73;100.00
42285;BME280;27942;47.510;18.966;2022-12-10T03:46:19;-15306.72;;;3.61;100.00
42285;BME280;27942;47.510;18.966;2022-12-10T03:48:44;-15304.72;;;3.54;100.00
42285;BME280;27942;47.510;18.966;2022-12-10T03:51:09;-15307.66;;;3.64;100.00
42285;BME280;27942;47.510;18.966;2022-12-10T03:53:35;-15304.09;;;3.52;100.00
42285;BME280;27942;47.510;18.966;2022-12-10T03:56:00;-15305.19;;;3.55;100.00
42285;BME280;27942;47.510;18.966;2022-12-10T03:58:25;-15304.25;;;3.52;100.00
42285;BME280;27942;47.510;18.966;2022-12-10T04:00:51;-15305.50;;;3.56;100.00
42285;BME280;27942;47.510;18.966;2022-12-10T04:03:16;-15302.84;;;3.48;100.00
42285;BME280;27942;47.510;18.966;2022-12-10T04:05:41;-15302.06;;;3.45;100.00
42285;BME280;27942;47.510;18.966;2022-12-10T04:08:06;-15303.78;;;3.51;100.00
42285;BME280;27942;47.510;18.966;2022-12-10T04:10:36;-15301.78;;;3.44;100.00
42285;BME280;27942;47.510;18.966;2022-12-10T04:13:02;-15302.38;;;3.46;100.00
42285;BME280;27942;47.510;18.966;2022-12-10T04:15:46;-15303.94;;;3.51;100.00
42285;BME280;27942;47.510;18.966;2022-12-10T04:18:30;-15301.16;;;3.42;100.00
42285;BME280;27942;47.510;18.966;2022-12-10T04:20:55;-15299.28;;;3.36;100.00
42285;BME280;27942;47.510;18.966;2022-12-10T04:23:39;-15298.03;;;3.32;100.00
42285;BME280;27942;47.510;18.966;2022-12-10T04:26:23;-15299.13;;;3.36;100.00
42285;BME280;27942;47.510;18.966;2022-12-10T04:29:07;-15302.38;;;3.46;100.00
42285;BME280;27942;47.510;18.966;2022-12-10T04:31:32;-15300.38;;;3.40;100.00
42285;BME280;27942;47.510;18.966;2022-12-10T04:33:58;-15299.59;;;3.37;100.00
42285;BME280;27942;47.510;18.966;2022-12-10T04:36:23;-15298.97;;;3.35;100.00
42285;BME280;27942;47.510;18.966;2022-12-10T04:38:48;-15303.78;;;3.51;100.00
42285;BME280;27942;47.510;18.966;2022-12-10T04:41:14;-15300.69;;;3.41;100.00
42285;BME280;27942;47.510;18.966;2022-12-10T04:43:43;-15299.75;;;3.38;100.00
42285;BME280;27942;47.510;18.966;2022-12-10T04:46:10;-15299.91;;;3.38;100.00
42285;BME280;27942;47.510;18.966;2022-12-10T04:48:36;-15299.28;;;3.36;100.00
42285;BME280;27942;47.510;18.966;2022-12-10T04:51:02;-15301.16;;;3.42;100.00
42285;BME280;27942;47.510;18.966;2022-12-10T04:53:28;-15299.28;;;3.36;100.00
42285;BME280;27942;47.510;18.966;2022-12-10T04:55:53;-15298.66;;;3.34;100.00
42285;BME280;27942;47.510;18.966;2022-12-10T04:58:18;-15303.00;;;3.48;100.00
42285;BME280;27942;47.510;18.966;2022-12-10T05:00:44;-15301.00;;;3.42;100.00
42285;BME280;27942;47.510;18.966;2022-12-10T05:03:09;-15302.38;;;3.46;100.00
42285;BME280;27942;47.510;18.966;2022-12-10T05:05:35;-15303.63;;;3.50;100.00
42285;BME280;27942;47.510;18.966;2022-12-10T05:08:00;-15303.63;;;3.50;100.00
42285;BME280;27942;47.510;18.966;2022-12-10T05:10:25;-15301.78;;;3.44;100.00
42285;BME280;27942;47.510;18.966;2022-12-10T05:12:51;-15299.59;;;3.37;100.00
42285;BME280;27942;47.510;18.966;2022-12-10T05:15:17;-15297.88;;;3.31;100.00
42285;BME280;27942;47.510;18.966;2022-12-10T05:17:43;-15299.28;;;3.36;100.00
42285;BME280;27942;47.510;18.966;2022-12-10T05:20:08;-15299.13;;;3.36;100.00
42285;BME280;27942;47.510;18.966;2022-12-10T05:22:34;-15300.69;;;3.41;100.00
42285;BME280;27942;47.510;18.966;2022-12-10T05:25:17;-15299.75;;;3.38;100.00
42285;BME280;27942;47.510;18.966;2022-12-10T05:27:43;-15298.34;;;3.33;100.00
42285;BME280;27942;47.510;18.966;2022-12-10T05:30:09;-15296.50;;;3.27;100.00
42285;BME280;27942;47.510;18.966;2022-12-10T05:32:35;-15295.56;;;3.24;100.00
42285;BME280;27942;47.510;18.966;2022-12-10T05:35:01;-15297.13;;;3.29;100.00
42285;BME280;27942;47.510;18.966;2022-12-10T05:37:27;-15301.63;;;3.44;100.00
42285;BME280;27942;47.510;18.966;2022-12-10T05:39:52;-15296.81;;;3.28;100.00
42285;BME280;27942;47.510;18.966;2022-12-10T05:42:17;-15295.56;;;3.24;100.00
42285;BME280;27942;47.510;18.966;2022-12-10T05:44:43;-15296.50;;;3.27;100.00
42285;BME280;27942;47.510;18.966;2022-12-10T05:47:08;-15294.78;;;3.21;100.00
42285;BME280;27942;47.510;18.966;2022-12-10T05:49:33;-15295.56;;;3.24;100.00
42285;BME280;27942;47.510;18.966;2022-12-10T05:51:59;-15296.19;;;3.26;100.00
42285;BME280;27942;47.510;18.966;2022-12-10T05:54:24;-15292.31;;;3.13;100.00
42285;BME280;27942;47.510;18.966;2022-12-10T05:56:49;-15290.28;;;3.06;100.00
42285;BME280;27942;47.510;18.966;2022-12-10T05:59:15;-15292.31;;;3.13;100.00
42285;BME280;27942;47.510;18.966;2022-12-10T06:01:40;-15294.47;;;3.20;100.00
42285;BME280;27942;47.510;18.966;2022-12-10T06:04:06;-15295.88;;;3.25;100.00
42285;BME280;27942;47.510;18.966;2022-12-10T06:06:36;-15296.81;;;3.28;100.00
42285;BME280;27942;47.510;18.966;2022-12-10T06:09:03;-15295.25;;;3.23;100.00
42285;BME280;27942;47.510;18.966;2022-12-10T06:11:29;-15296.97;;;3.28;100.00
42285;BME280;27942;47.510;18.966;2022-12-10T06:13:56;-15297.59;;;3.30;100.00
42285;BME280;27942;47.510;18.966;2022-12-10T06:16:23;-15297.44;;;3.30;100.00
42285;BME280;27942;47.510;18.966;2022-12-10T06:18:49;-15296.97;;;3.28;100.00
42285;BME280;27942;47.510;18.966;2022-12-10T06:21:16;-15297.28;;;3.29;100.00
42285;BME280;27942;47.510;18.966;2022-12-10T06:23:42;-15296.03;;;3.25;100.00
42285;BME280;27942;47.510;18.966;2022-12-10T06:26:13;-15296.66;;;3.27;100.00
42285;BME280;27942;47.510;18.966;2022-12-10T06:28:38;-15293.09;;;3.16;100.00
42285;BME280;27942;47.510;18.966;2022-12-10T06:31:04;-15293.69;;;3.18;100.00
42285;BME280;27942;47.510;18.966;2022-12-10T06:33:30;-15293.25;;;3.16;100.00
42285;BME280;27942;47.510;18.966;2022-12-10T06:35:55;-15295.56;;;3.24;100.00
42285;BME280;27942;47.510;18.966;2022-12-10T06:38:20;-15292.00;;;3.12;100.00
42285;BME280;27942;47.510;18.966;2022-12-10T06:40:46;-15289.34;;;3.03;100.00
42285;BME280;27942;47.510;18.966;2022-12-10T06:43:11;-15289.97;;;3.05;100.00
42285;BME280;27942;47.510;18.966;2022-12-10T06:45:41;-15289.81;;;3.05;100.00
42285;BME280;27942;47.510;18.966;2022-12-10T06:48:06;-15291.38;;;3.10;100.00
42285;BME280;27942;47.510;18.966;2022-12-10T06:50:32;-15290.91;;;3.08;100.00
42285;BME280;27942;47.510;18.966;2022-12-10T06:52:58;-15287.81;;;2.98;100.00
42285;BME280;27942;47.510;18.966;2022-12-10T06:55:23;-15285.03;;;2.89;100.00
42285;BME280;27942;47.510;18.966;2022-12-10T06:57:52;-15281.59;;;2.78;100.00
42285;BME280;27942;47.510;18.966;2022-12-10T07:00:18;-15284.09;;;2.86;100.00
42285;BME280;27942;47.510;18.966;2022-12-10T07:02:43;-15279.59;;;2.71;100.00
42285;BME280;27942;47.510;18.966;2022-12-10T07:05:09;-15274.78;;;2.55;100.00
42285;BME280;27942;47.510;18.966;2022-12-10T07:07:35;-15274.16;;;2.53;100.00
42285;BME280;27942;47.510;18.966;2022-12-10T07:10:00;-15274.00;;;2.53;100.00
42285;BME280;27942;47.510;18.966;2022-12-10T07:12:26;-15275.56;;;2.58;100.00
42285;BME280;27942;47.510;18.966;2022-12-10T07:14:52;-15275.25;;;2.57;100.00
42285;BME280;27942;47.510;18.966;2022-12-10T07:17:17;-15275.56;;;2.58;100.00
42285;BME280;27942;47.510;18.966;2022-12-10T07:19:42;-15275.25;;;2.57;100.00
42285;BME280;27942;47.510;18.966;2022-12-10T07:22:08;-15271.69;;;2.45;100.00
42285;BME280;27942;47.510;18.966;2022-12-10T07:24:33;-15272.75;;;2.49;100.00
42285;BME280;27942;47.510;18.966;2022-12-10T07:26:58;-15274.00;;;2.53;100.00
42285;BME280;27942;47.510;18.966;2022-12-10T07:29:24;-15270.44;;;2.41;100.00
42285;BME280;27942;47.510;18.966;2022-12-10T07:31:51;-15272.00;;;2.46;100.00
42285;BME280;27942;47.510;18.966;2022-12-10T07:34:17;-15272.00;;;2.46;100.00
42285;BME280;27942;47.510;18.966;2022-12-10T07:36:43;-15272.00;;;2.46;100.00
42285;BME280;27942;47.510;18.966;2022-12-10T07:39:10;-15273.38;;;2.51;100.00
42285;BME280;27942;47.510;18.966;2022-12-10T07:41:42;-15273.53;;;2.51;100.00
42285;BME280;27942;47.510;18.966;2022-12-10T07:44:11;-15267.34;;;2.31;100.00
42285;BME280;27942;47.510;18.966;2022-12-10T07:46:38;-15269.66;;;2.39;100.00
42285;BME280;27942;47.510;18.966;2022-12-10T07:49:03;-15269.97;;;2.40;100.00
42285;BME280;27942;47.510;18.966;2022-12-10T07:51:29;-15268.75;;;2.36;100.00
42285;BME280;27942;47.510;18.966;2022-12-10T07:53:54;-15263.63;;;2.19;100.00
42285;BME280;27942;47.510;18.966;2022-12-10T07:56:20;-15262.38;;;2.15;100.00
42285;BME280;27942;47.510;18.966;2022-12-10T07:58:46;-15258.50;;;2.02;100.00
42285;BME280;27942;47.510;18.966;2022-12-10T08:01:18;-15260.97;;;2.10;100.00
42285;BME280;27942;47.510;18.966;2022-12-10T08:03:44;-15260.84;;;2.10;100.00
42285;BME280;27942;47.510;18.966;2022-12-10T08:06:15;-15266.09;;;2.27;100.00
42285;BME280;27942;47.510;18.966;2022-12-10T08:08:42;-15268.28;;;2.34;100.00
42285;BME280;27942;47.510;18.966;2022-12-10T08:11:08;-15268.91;;;2.36;100.00
42285;BME280;27942;47.510;18.966;2022-12-10T08:13:34;-15267.81;;;2.33;100.00
42285;BME280;27942;47.510;18.966;2022-12-10T08:16:02;-15270.13;;;2.40;100.00
42285;BME280;27942;47.510;18.966;2022-12-10T08:18:28;-15270.75;;;2.42;100.00
42285;BME280;27942;47.510;18.966;2022-12-10T08:20:53;-15268.13;;;2.34;100.00
42285;BME280;27942;47.510;18.966;2022-12-10T08:23:18;-15266.88;;;2.29;100.00
42285;BME280;27942;47.510;18.966;2022-12-10T08:25:43;-15264.72;;;2.22;100.00
42285;BME280;27942;47.510;18.966;2022-12-10T08:28:09;-15272.75;;;2.49;100.00
42285;BME280;27942;47.510;18.966;2022-12-10T08:30:34;-15277.28;;;2.64;100.00
42285;BME280;27942;47.510;18.966;2022-12-10T08:33:00;-15276.81;;;2.62;100.00
42285;BME280;27942;47.510;18.966;2022-12-10T08:35:25;-15279.75;;;2.72;100.00
42285;BME280;27942;47.510;18.966;2022-12-10T08:37:50;-15281.59;;;2.78;100.00
42285;BME280;27942;47.510;18.966;2022-12-10T08:40:16;-15282.84;;;2.82;100.00
42285;BME280;27942;47.510;18.966;2022-12-10T08:42:41;-15287.50;;;2.97;100.00
42285;BME280;27942;47.510;18.966;2022-12-10T08:45:07;-15289.81;;;3.05;100.00
42285;BME280;27942;47.510;18.966;2022-12-10T08:47:32;-15285.03;;;2.89;100.00
42285;BME280;27942;47.510;18.966;2022-12-10T08:49:58;-15284.56;;;2.88;100.00
42285;BME280;27942;47.510;18.966;2022-12-10T08:52:23;-15281.91;;;2.79;100.00
42285;BME280;27942;47.510;18.966;2022-12-10T08:54:48;-15286.25;;;2.93;100.00
42285;BME280;27942;47.510;18.966;2022-12-10T08:57:14;-15285.03;;;2.89;100.00
42285;BME280;27942;47.510;18.966;2022-12-10T08:59:39;-15285.94;;;2.92;100.00
42285;BME280;27942;47.510;18.966;2022-12-10T09:02:04;-15284.56;;;2.88;100.00
42285;BME280;27942;47.510;18.966;2022-12-10T09:04:30;-15284.09;;;2.86;100.00
42285;BME280;27942;47.510;18.966;2022-12-10T09:06:55;-15283.78;;;2.85;100.00
42285;BME280;27942;47.510;18.966;2022-12-10T09:09:21;-15281.28;;;2.77;100.00
42285;BME280;27942;47.510;18.966;2022-12-10T09:11:46;-15285.16;;;2.90;100.00
42285;BME280;27942;47.510;18.966;2022-12-10T09:14:12;-15283.63;;;2.85;100.00
42285;BME280;27942;47.510;18.966;2022-12-10T09:16:38;-15280.53;;;2.74;100.00
42285;BME280;27942;47.510;18.966;2022-12-10T09:19:07;-15281.59;;;2.78;100.00
42285;BME280;27942;47.510;18.966;2022-12-10T09:21:32;-15284.72;;;2.88;100.00
42285;BME280;27942;47.510;18.966;2022-12-10T09:23:58;-15285.63;;;2.91;100.00
42285;BME280;27942;47.510;18.966;2022-12-10T09:26:24;-15287.66;;;2.98;100.00
42285;BME280;27942;47.510;18.966;2022-12-10T09:28:50;-15291.22;;;3.10;100.00
42285;BME280;27942;47.510;18.966;2022-12-10T09:31:18;-15288.75;;;3.01;100.00
42285;BME280;27942;47.510;18.966;2022-12-10T09:33:44;-15286.56;;;2.94;100.00
42285;BME280;27942;47.510;18.966;2022-12-10T09:36:12;-15287.66;;;2.98;100.00
42285;BME280;27942;47.510;18.966;2022-12-10T09:38:39;-15282.38;;;2.80;100.00
42285;BME280;27942;47.510;18.966;2022-12-10T09:43:51;-15288.75;;;3.01;100.00
42285;BME280;27942;47.510;18.966;2022-12-10T09:51:34;-15289.97;;;3.05;100.00
42285;BME280;27942;47.510;18.966;2022-12-10T09:54:02;-15290.75;;;3.08;100.00
42285;BME280;27942;47.510;18.966;2022-12-10T09:56:34;-15288.59;;;3.01;100.00
42285;BME280;27942;47.510;18.966;2022-12-10T09:59:15;-15290.28;;;3.06;100.00
42285;BME280;27942;47.510;18.966;2022-12-10T10:01:42;-15292.94;;;3.15;100.00
42285;BME280;27942;47.510;18.966;2022-12-10T10:04:09;-15289.66;;;3.04;100.00
42285;BME280;27942;47.510;18.966;2022-12-10T10:06:35;-15290.28;;;3.06;100.00
42285;BME280;27942;47.510;18.966;2022-12-10T10:09:01;-15291.84;;;3.12;100.00
42285;BME280;27942;47.510;18.966;2022-12-10T10:11:30;-15294.78;;;3.21;100.00
42285;BME280;27942;47.510;18.966;2022-12-10T10:14:24;-15296.34;;;3.26;100.00
42285;BME280;27942;47.510;18.966;2022-12-10T10:16:54;-15297.13;;;3.29;100.00
42285;BME280;27942;47.510;18.966;2022-12-10T10:19:30;-15300.53;;;3.40;100.00
42285;BME280;27942;47.510;18.966;2022-12-10T10:21:58;-15297.59;;;3.30;100.00
42285;BME280;27942;47.510;18.966;2022-12-10T10:24:31;-15296.03;;;3.25;100.00
42285;BME280;27942;47.510;18.966;2022-12-10T10:27:09;-15295.88;;;3.25;100.00
42285;BME280;27942;47.510;18.966;2022-12-10T10:29:36;-15293.69;;;3.18;100.00
42285;BME280;27942;47.510;18.966;2022-12-10T10:32:22;-15291.53;;;3.11;100.00
42285;BME280;27942;47.510;18.966;2022-12-10T10:34:56;-15292.47;;;3.14;100.00
42285;BME280;27942;47.510;18.966;2022-12-10T10:37:28;-15290.28;;;3.06;100.00
42285;BME280;27942;47.510;18.966;2022-12-10T10:39:54;-15288.75;;;3.01;100.00
42285;BME280;27942;47.510;18.966;2022-12-10T10:42:34;-15289.06;;;3.02;100.00
42285;BME280;27942;47.510;18.966;2022-12-10T10:45:44;-15287.34;;;2.97;100.00
42285;BME280;27942;47.510;18.966;2022-12-10T10:48:04;-15286.72;;;2.95;100.00
42285;BME280;27942;47.510;18.966;2022-12-10T10:50:29;-15284.25;;;2.87;100.00
42285;BME280;27942;47.510;18.966;2022-12-10T10:52:54;-15286.25;;;2.93;100.00
42285;BME280;27942;47.510;18.966;2022-12-10T10:55:33;-15286.56;;;2.94;100.00
42285;BME280;27942;47.510;18.966;2022-12-10T10:58:00;-15285.31;;;2.90;100.00
42285;BME280;27942;47.510;18.966;2022-12-10T11:00:26;-15282.38;;;2.80;100.00
42285;BME280;27942;47.510;18.966;2022-12-10T11:02:52;-15282.69;;;2.81;100.00
42285;BME280;27942;47.510;18.966;2022-12-10T11:05:22;-15282.69;;;2.81;100.00
42285;BME280;27942;47.510;18.966;2022-12-10T11:07:57;-15281.59;;;2.78;100.00
42285;BME280;27942;47.510;18.966;2022-12-10T11:10:24;-15282.84;;;2.82;100.00
42285;BME280;27942;47.510;18.966;2022-12-10T11:13:02;-15281.75;;;2.78;100.00
42285;BME280;27942;47.510;18.966;2022-12-10T11:15:38;-15281.59;;;2.78;100.00
42285;BME280;27942;47.510;18.966;2022-12-10T11:23:36;-15276.81;;;2.62;100.00
42285;BME280;27942;47.510;18.966;2022-12-10T11:28:50;-15280.38;;;2.74;100.00
42285;BME280;27942;47.510;18.966;2022-12-10T11:35:00;-15279.59;;;2.71;100.00
42285;BME280;27942;47.510;18.966;2022-12-10T11:48:19;-15278.66;;;2.68;100.00
42285;BME280;27942;47.510;18.966;2022-12-10T11:50:50;-15278.50;;;2.68;100.00
42285;BME280;27942;47.510;18.966;2022-12-10T12:07:36;-15273.53;;;2.51;100.00
42285;BME280;27942;47.510;18.966;2022-12-10T12:15:32;-15274.78;;;2.55;100.00
42285;BME280;27942;47.510;18.966;2022-12-10T12:18:17;-15276.50;;;2.61;100.00
42285;BME280;27942;47.510;18.966;2022-12-10T12:20:48;-15274.47;;;2.54;100.00
42285;BME280;27942;47.510;18.966;2022-12-10T12:23:36;-15274.16;;;2.53;100.00
42285;BME280;27942;47.510;18.966;2022-12-10T12:26:13;-15273.22;;;2.50;100.00
42285;BME280;27942;47.510;18.966;2022-12-10T12:29:23;-15273.53;;;2.51;100.00
42285;BME280;27942;47.510;18.966;2022-12-10T12:32:04;-15271.53;;;2.45;100.00
42285;BME280;27942;47.510;18.966;2022-12-10T12:35:13;-15271.06;;;2.43;100.00
42285;BME280;27942;47.510;18.966;2022-12-10T12:37:59;-15265.63;;;2.25;100.00
42285;BME280;27942;47.510;18.966;2022-12-10T12:40:30;-15268.59;;;2.35;100.00
42285;BME280;27942;47.510;18.966;2022-12-10T12:43:01;-15268.91;;;2.36;100.00
42285;BME280;27942;47.510;18.966;2022-12-10T12:45:51;-15268.75;;;2.36;100.00
42285;BME280;27942;47.510;18.966;2022-12-10T12:48:51;-15269.06;;;2.37;100.00
42285;BME280;27942;47.510;18.966;2022-12-10T12:51:29;-15265.94;;;2.26;100.00
42285;BME280;27942;47.510;18.966;2022-12-10T12:53:55;-15266.09;;;2.27;100.00
42285;BME280;27942;47.510;18.966;2022-12-10T13:02:44;-15264.09;;;2.20;100.00
42285;BME280;27942;47.510;18.966;2022-12-10T13:05:14;-15263.31;;;2.18;100.00
42285;BME280;27942;47.510;18.966;2022-12-10T13:07:41;-15265.00;;;2.23;100.00
42285;BME280;27942;47.510;18.966;2022-12-10T13:10:17;-15269.50;;;2.38;100.00
42285;BME280;27942;47.510;18.966;2022-12-10T13:12:52;-15269.66;;;2.39;100.00
42285;BME280;27942;47.510;18.966;2022-12-10T13:15:35;-15265.47;;;2.25;100.00
42285;BME280;27942;47.510;18.966;2022-12-10T13:20:44;-15266.41;;;2.28;100.00
42285;BME280;27942;47.510;18.966;2022-12-10T13:37:02;-15263.00;;;2.17;100.00
42285;BME280;27942;47.510;18.966;2022-12-10T13:39:43;-15263.47;;;2.18;100.00
42285;BME280;27942;47.510;18.966;2022-12-10T13:47:43;-15267.50;;;2.32;100.00
42285;BME280;27942;47.510;18.966;2022-12-10T13:50:22;-15266.25;;;2.27;100.00
42285;BME280;27942;47.510;18.966;2022-12-10T14:06:44;-15264.56;;;2.22;100.00
42285;BME280;27942;47.510;18.966;2022-12-10T14:09:21;-15264.56;;;2.22;100.00
42285;BME280;27942;47.510;18.966;2022-12-10T14:11:59;-15259.44;;;2.05;100.00
42285;BME280;27942;47.510;18.966;2022-12-10T14:14:30;-15262.69;;;2.16;100.00
42285;BME280;27942;47.510;18.966;2022-12-10T14:17:00;-15260.69;;;2.09;100.00
42285;BME280;27942;47.510;18.966;2022-12-10T14:19:28;-15260.53;;;2.09;100.00
42285;BME280;27942;47.510;18.966;2022-12-10T14:21:54;-15259.44;;;2.05;100.00
42285;BME280;27942;47.510;18.966;2022-12-10T14:24:36;-15259.44;;;2.05;100.00
42285;BME280;27942;47.510;18.966;2022-12-10T14:27:14;-15261.13;;;2.11;100.00
42285;BME280;27942;47.510;18.966;2022-12-10T14:29:53;-15260.53;;;2.09;100.00
42285;BME280;27942;47.510;18.966;2022-12-10T14:32:37;-15257.41;;;1.98;100.00
42285;BME280;27942;47.510;18.966;2022-12-10T14:35:06;-15255.56;;;1.92;100.00
42285;BME280;27942;47.510;18.966;2022-12-10T14:37:34;-15255.09;;;1.91;100.00
42285;BME280;27942;47.510;18.966;2022-12-10T14:40:00;-15255.88;;;1.93;100.00
42285;BME280;27942;47.510;18.966;2022-12-10T14:42:26;-15257.41;;;1.98;100.00